createdAt,value
2023-12-18T00:00:38.228Z,101092.20
2023-12-18T00:03:05.798Z,101089.02
2023-12-18T00:05:32.961Z,101084.54
2023-12-18T00:07:59.703Z,101079.02
2023-12-18T00:10:26.427Z,101078.05
2023-12-18T00:12:53.094Z,101071.35
2023-12-18T00:15:19.840Z,101066.65
2023-12-18T00:17:47.139Z,101062.77
2023-12-18T00:20:14.180Z,101065.73
2023-12-18T00:22:40.844Z,101049.09
2023-12-18T00:25:08.099Z,101055.60
2023-12-18T00:27:34.944Z,101058.99
2023-12-18T00:30:01.832Z,101046.09
2023-12-18T00:32:28.675Z,101050.88
2023-12-18T00:34:55.548Z,101055.55
2023-12-18T00:37:23.390Z,101056.67
2023-12-18T00:39:50.082Z,101058.30
2023-12-18T00:42:17.259Z,101057.38
2023-12-18T00:44:43.975Z,101051.40
2023-12-18T00:47:11.095Z,101034.24
2023-12-18T00:49:37.875Z,101037.06
2023-12-18T00:52:04.902Z,101033.65
2023-12-18T00:54:31.671Z,101029.82
2023-12-18T00:56:58.378Z,101034.74
2023-12-18T00:59:25.049Z,101038.34
2023-12-18T01:01:51.809Z,101034.63
2023-12-18T01:04:18.676Z,101031.04
2023-12-18T01:06:45.576Z,101034.98
2023-12-18T01:09:14.220Z,101035.84
2023-12-18T01:11:41.100Z,101029.35
2023-12-18T01:14:09.834Z,101029.58
2023-12-18T01:16:36.673Z,101033.25
2023-12-18T01:19:04.082Z,101031.27
2023-12-18T01:21:31.412Z,101038.08
2023-12-18T01:23:58.178Z,101042.81
2023-12-18T01:26:24.843Z,101049.50
2023-12-18T01:28:51.508Z,101043.31
2023-12-18T01:31:25.521Z,101047.51
2023-12-18T01:33:54.833Z,101039.27
2023-12-18T01:36:22.991Z,101034.86
2023-12-18T01:38:49.924Z,101021.85
2023-12-18T01:41:17.411Z,101036.09
2023-12-18T01:43:44.699Z,101022.67
2023-12-18T01:46:18.772Z,101034.36
2023-12-18T01:48:46.914Z,101025.91
2023-12-18T01:51:14.358Z,101033.65
2023-12-18T01:53:50.076Z,101036.29
2023-12-18T01:56:19.428Z,101022.48
2023-12-18T01:58:46.674Z,101029.67
2023-12-18T02:01:14.550Z,101036.60
2023-12-18T02:03:42.203Z,101037.06
2023-12-18T02:06:09.195Z,101023.40
2023-12-18T02:08:36.387Z,101027.20
2023-12-18T02:11:03.485Z,101019.79
2023-12-18T02:13:30.395Z,101014.72
2023-12-18T02:15:59.081Z,101022.38
2023-12-18T02:18:26.566Z,101017.52
2023-12-18T02:20:53.625Z,101019.23
2023-12-18T02:23:20.335Z,101014.38
2023-12-18T02:25:47.187Z,101013.45
2023-12-18T02:28:16.580Z,101008.43
2023-12-18T02:30:43.608Z,101015.97
2023-12-18T02:33:10.974Z,101008.03
2023-12-18T02:35:39.223Z,101004.52
2023-12-18T02:38:06.009Z,101000.48
2023-12-18T02:40:32.694Z,100997.35
2023-12-18T02:42:59.421Z,100994.55
2023-12-18T02:45:27.337Z,100990.23
2023-12-18T02:47:54.108Z,100995.56
2023-12-18T02:50:20.820Z,100994.10
2023-12-18T02:52:47.616Z,101002.55
2023-12-18T02:55:14.599Z,101012.36
2023-12-18T02:57:42.078Z,101011.39
2023-12-18T03:00:10.058Z,101009.69
2023-12-18T03:02:39.241Z,101013.42
2023-12-18T03:05:07.083Z,101014.02
2023-12-18T03:07:33.833Z,101021.64
2023-12-18T03:10:00.579Z,101033.23
2023-12-18T03:12:27.447Z,101027.54
2023-12-18T03:14:54.191Z,101022.44
2023-12-18T03:17:26.926Z,101025.88
2023-12-18T03:19:54.002Z,101025.66
2023-12-18T03:22:21.476Z,101021.42
2023-12-18T03:24:48.161Z,101028.11
2023-12-18T03:27:15.094Z,101030.23
2023-12-18T03:29:41.953Z,101028.54
2023-12-18T03:32:08.646Z,101030.22
2023-12-18T03:34:35.614Z,101025.17
2023-12-18T03:37:02.449Z,101024.39
2023-12-18T03:39:29.498Z,101026.42
2023-12-18T03:41:58.340Z,101027.36
2023-12-18T03:44:25.198Z,101031.17
2023-12-18T03:46:52.306Z,101029.55
2023-12-18T03:49:19.273Z,101028.88
2023-12-18T03:51:46.080Z,101029.92
2023-12-18T03:54:12.869Z,101024.86
2023-12-18T03:56:39.550Z,101029.37
2023-12-18T03:59:06.226Z,101036.66
2023-12-18T04:01:34.508Z,101040.86
2023-12-18T04:04:01.407Z,101040.81
2023-12-18T04:06:28.304Z,101038.77
2023-12-18T04:08:55.699Z,101031.21
2023-12-18T04:11:25.222Z,101033.94
2023-12-18T04:13:52.667Z,101024.14
2023-12-18T04:16:19.329Z,101024.96
2023-12-18T04:18:46.269Z,101027.46
2023-12-18T04:21:13.365Z,101025.59
2023-12-18T04:23:40.190Z,101019.80
2023-12-18T04:26:06.911Z,101019.34
2023-12-18T04:28:33.618Z,101014.45
2023-12-18T04:31:01.232Z,101009.23
2023-12-18T04:33:28.246Z,101008.45
2023-12-18T04:35:55.023Z,101014.59
2023-12-18T04:38:21.686Z,101016.16
2023-12-18T04:40:48.399Z,101018.10
2023-12-18T04:43:15.084Z,101017.45
2023-12-18T04:45:42.005Z,101021.96
2023-12-18T04:48:09.630Z,101016.14
2023-12-18T04:50:36.430Z,101020.97
2023-12-18T04:53:03.208Z,101017.64
2023-12-18T04:55:29.915Z,101020.41
2023-12-18T04:57:57.940Z,101024.55
2023-12-18T05:00:24.781Z,101026.39
2023-12-18T05:02:51.631Z,101032.92
2023-12-18T05:05:18.330Z,101032.44
2023-12-18T05:07:45.008Z,101032.94
2023-12-18T05:10:11.709Z,101025.52
2023-12-18T05:12:38.511Z,101022.23
2023-12-18T05:15:08.817Z,101026.27
2023-12-18T05:17:37.628Z,101020.86
2023-12-18T05:20:07.468Z,101022.61
2023-12-18T05:22:35.357Z,101026.44
2023-12-18T05:25:02.060Z,101023.55
2023-12-18T05:27:28.926Z,101016.63
2023-12-18T05:29:55.998Z,101017.04
2023-12-18T05:32:22.745Z,101018.44
2023-12-18T05:34:50.603Z,101013.20
2023-12-18T05:37:17.524Z,101009.52
2023-12-18T05:39:45.540Z,101012.78
2023-12-18T05:42:12.680Z,101013.96
2023-12-18T05:44:39.386Z,101020.83
2023-12-18T05:47:06.112Z,101021.44
2023-12-18T05:49:33.020Z,101027.44
2023-12-18T05:52:00.215Z,101030.86
2023-12-18T05:54:27.082Z,101032.39
2023-12-18T05:56:53.827Z,101028.79
2023-12-18T05:59:20.750Z,101027.11
2023-12-18T06:01:47.585Z,101030.30
2023-12-18T06:04:14.467Z,101031.80
2023-12-18T06:06:41.432Z,101035.84
2023-12-18T06:09:08.393Z,101031.33
2023-12-18T06:11:35.175Z,101036.48
2023-12-18T06:14:01.865Z,101044.50
2023-12-18T06:16:28.572Z,101043.20
2023-12-18T06:19:00.843Z,101046.77
2023-12-18T06:21:28.006Z,101042.86
2023-12-18T06:23:54.786Z,101052.54
2023-12-18T06:26:21.461Z,101057.44
2023-12-18T06:28:48.160Z,101060.11
2023-12-18T06:31:15.012Z,101060.71
2023-12-18T06:33:42.675Z,101067.45
2023-12-18T06:36:09.545Z,101071.58
2023-12-18T06:38:36.414Z,101072.41
2023-12-18T06:41:03.200Z,101077.16
2023-12-18T06:43:29.934Z,101070.04
2023-12-18T06:45:56.759Z,101066.05
2023-12-18T06:48:24.955Z,101066.39
2023-12-18T06:50:51.782Z,101064.55
2023-12-18T06:53:18.473Z,101071.73
2023-12-18T06:55:45.178Z,101063.31
2023-12-18T06:58:11.910Z,101066.55
2023-12-18T07:00:41.221Z,101067.89
2023-12-18T07:03:08.696Z,101071.58
2023-12-18T07:05:35.924Z,101061.66
2023-12-18T07:08:03.228Z,101069.60
2023-12-18T07:10:29.943Z,101061.40
2023-12-18T07:12:56.892Z,101064.39
2023-12-18T07:15:25.881Z,101064.23
2023-12-18T07:17:53.804Z,101062.86
2023-12-18T07:20:21.107Z,101059.93
2023-12-18T07:22:48.155Z,101063.11
2023-12-18T07:25:15.279Z,101056.27
2023-12-18T07:27:42.578Z,101045.66
2023-12-18T07:30:11.012Z,101053.37
2023-12-18T07:32:39.786Z,101053.28
2023-12-18T07:35:07.477Z,101057.95
2023-12-18T07:37:34.291Z,101067.48
2023-12-18T07:40:01.408Z,101070.84
2023-12-18T07:42:28.435Z,101075.05
2023-12-18T07:44:55.459Z,101068.49
2023-12-18T07:47:22.724Z,101073.94
2023-12-18T07:49:51.142Z,101078.52
2023-12-18T07:52:18.797Z,101068.79
2023-12-18T07:54:45.890Z,101076.83
2023-12-18T07:57:12.982Z,101075.31
2023-12-18T07:59:41.503Z,101078.84
2023-12-18T08:02:09.547Z,101084.42
2023-12-18T08:04:36.805Z,101079.77
2023-12-18T08:07:04.250Z,101085.46
2023-12-18T08:09:31.180Z,101082.45
2023-12-18T08:11:58.466Z,101080.52
2023-12-18T08:14:25.394Z,101079.58
2023-12-18T08:16:52.125Z,101078.40
2023-12-18T08:19:19.506Z,101078.27
2023-12-18T08:21:46.691Z,101080.53
2023-12-18T08:24:13.585Z,101076.99
2023-12-18T08:26:40.606Z,101079.66
2023-12-18T08:29:10.051Z,101068.73
2023-12-18T08:31:39.152Z,101065.52
2023-12-18T08:34:07.084Z,101074.21
2023-12-18T08:36:36.270Z,101068.89
2023-12-18T08:39:10.244Z,101066.20
2023-12-18T08:41:38.579Z,101072.61
2023-12-18T08:44:10.035Z,101071.08
2023-12-18T08:46:37.252Z,101077.38
2023-12-18T08:49:04.207Z,101084.34
2023-12-18T08:51:31.157Z,101076.71
2023-12-18T08:53:58.096Z,101072.84
2023-12-18T08:56:26.130Z,101070.16
2023-12-18T08:58:53.990Z,101070.95
2023-12-18T09:01:21.105Z,101079.55
2023-12-18T09:03:53.482Z,101064.85
2023-12-18T09:06:22.133Z,101066.71
2023-12-18T09:08:48.935Z,101066.02
2023-12-18T09:11:16.267Z,101061.45
2023-12-18T09:13:43.212Z,101066.38
2023-12-18T09:16:10.037Z,101066.98
2023-12-18T09:18:36.833Z,101064.40
2023-12-18T09:21:03.893Z,101065.42
2023-12-18T09:23:30.689Z,101064.63
2023-12-18T09:25:58.221Z,101052.94
2023-12-18T09:28:24.939Z,101056.71
2023-12-18T09:30:53.023Z,101057.47
2023-12-18T09:33:20.111Z,101053.46
2023-12-18T09:35:46.967Z,101065.30
2023-12-18T09:38:14.341Z,101069.74
2023-12-18T09:40:45.850Z,101065.09
2023-12-18T09:43:19.856Z,101054.10
2023-12-18T09:45:49.671Z,101053.36
2023-12-18T09:48:19.986Z,101048.27
2023-12-18T09:50:47.569Z,101046.18
2023-12-18T09:53:17.746Z,101046.23
2023-12-18T09:55:46.861Z,101039.14
2023-12-18T09:58:15.993Z,101035.42
2023-12-18T10:00:43.433Z,101026.91
2023-12-18T10:03:10.797Z,101041.34
2023-12-18T10:05:37.673Z,101040.23
2023-12-18T10:08:05.482Z,101035.17
2023-12-18T10:10:32.320Z,101039.10
2023-12-18T10:12:59.158Z,101039.00
2023-12-18T10:15:26.822Z,101039.25
2023-12-18T10:17:54.977Z,101032.34
2023-12-18T10:20:21.800Z,101041.73
2023-12-18T10:22:48.478Z,101037.02
2023-12-18T10:25:15.367Z,101042.33
2023-12-18T10:27:44.053Z,101036.08
2023-12-18T10:30:12.132Z,101033.70
2023-12-18T10:32:42.025Z,101030.42
2023-12-18T10:35:09.714Z,101037.77
2023-12-18T10:37:38.425Z,101038.57
2023-12-18T10:40:12.905Z,101041.56
2023-12-18T10:42:43.311Z,101044.35
2023-12-18T10:45:10.475Z,101036.17
2023-12-18T10:47:38.058Z,101051.40
2023-12-18T10:50:06.685Z,101053.61
2023-12-18T10:52:34.802Z,101045.29
2023-12-18T10:55:06.105Z,101044.93
2023-12-18T10:57:38.274Z,101036.72
2023-12-18T11:00:09.642Z,101031.47
2023-12-18T11:02:37.680Z,101037.59
2023-12-18T11:05:07.304Z,101031.91
2023-12-18T11:07:34.681Z,101035.73
2023-12-18T11:10:01.843Z,101042.23
2023-12-18T11:12:30.194Z,101036.64
2023-12-18T11:15:04.264Z,101037.70
2023-12-18T11:18:06.646Z,101030.18
2023-12-18T11:20:38.390Z,101031.23
2023-12-18T11:23:06.549Z,101037.02
2023-12-18T11:25:36.421Z,101029.41
2023-12-18T11:28:07.262Z,101030.61
2023-12-18T11:30:35.896Z,101036.34
2023-12-18T11:33:07.539Z,101037.64
2023-12-18T11:35:37.094Z,101041.42
2023-12-18T11:38:15.109Z,101036.45
2023-12-18T11:41:00.992Z,101034.70
2023-12-18T11:43:39.828Z,101028.34
2023-12-18T11:46:17.232Z,101030.59
2023-12-18T11:48:47.706Z,101030.27
2023-12-18T11:51:17.037Z,101029.55
2023-12-18T11:53:44.117Z,101036.42
2023-12-18T11:56:12.990Z,101042.27
2023-12-18T11:58:45.194Z,101036.68
2023-12-18T12:01:13.952Z,101038.23
2023-12-18T12:03:41.878Z,101041.63
2023-12-18T12:06:09.856Z,101046.27
2023-12-18T12:09:03.377Z,101050.45
2023-12-18T12:11:30.421Z,101062.88
2023-12-18T12:13:57.366Z,101065.61
2023-12-18T12:16:25.049Z,101071.36
2023-12-18T12:18:52.693Z,101067.37
2023-12-18T12:21:20.012Z,101065.11
2023-12-18T12:23:50.950Z,101069.83
2023-12-18T12:26:19.678Z,101065.41
2023-12-18T12:28:49.217Z,101072.17
2023-12-18T12:31:20.848Z,101073.65
2023-12-18T12:33:50.177Z,101076.99
2023-12-18T12:36:20.597Z,101078.45
2023-12-18T12:38:47.474Z,101085.15
2023-12-18T12:41:15.634Z,101088.77
2023-12-18T12:43:44.430Z,101083.58
2023-12-18T12:46:15.533Z,101088.20
2023-12-18T12:48:47.007Z,101087.23
2023-12-18T12:51:15.688Z,101086.13
2023-12-18T12:53:43.237Z,101083.89
2023-12-18T12:56:12.130Z,101082.45
2023-12-18T12:58:39.051Z,101080.46
2023-12-18T13:01:08.533Z,101081.55
2023-12-18T13:03:38.868Z,101081.14
2023-12-18T13:06:05.947Z,101081.06
2023-12-18T13:08:34.701Z,101082.60
2023-12-18T13:11:05.024Z,101084.42
2023-12-18T13:13:32.313Z,101078.08
2023-12-18T13:16:00.917Z,101080.27
2023-12-18T13:18:28.826Z,101079.17
2023-12-18T13:20:55.634Z,101082.39
2023-12-18T13:23:23.815Z,101081.58
2023-12-18T13:25:51.493Z,101083.04
2023-12-18T13:28:18.228Z,101079.05
2023-12-18T13:30:45.216Z,101081.62
2023-12-18T13:33:12.224Z,101086.13
2023-12-18T13:35:39.350Z,101089.45
2023-12-18T13:38:06.191Z,101085.21
2023-12-18T13:40:33.079Z,101087.21
2023-12-18T13:42:59.840Z,101084.22
2023-12-18T13:45:26.860Z,101074.05
2023-12-18T13:47:55.551Z,101079.82
2023-12-18T13:50:23.356Z,101082.41
2023-12-18T13:52:50.155Z,101081.01
2023-12-18T13:55:17.208Z,101079.44
2023-12-18T13:57:48.812Z,101084.59
2023-12-18T14:00:22.868Z,101086.00
2023-12-18T14:02:53.774Z,101084.10
2023-12-18T14:05:22.127Z,101082.86
2023-12-18T14:07:48.939Z,101084.73
2023-12-18T14:10:16.109Z,101084.94
2023-12-18T14:12:43.178Z,101081.66
2023-12-18T14:15:12.448Z,101087.86
2023-12-18T14:17:39.532Z,101086.77
2023-12-18T14:20:08.815Z,101079.91
2023-12-18T14:22:35.611Z,101084.04
2023-12-18T14:25:03.941Z,101086.21
2023-12-18T14:27:33.679Z,101085.23
2023-12-18T14:30:01.129Z,101088.80
2023-12-18T14:32:28.178Z,101088.67
2023-12-18T14:34:55.182Z,101085.15
2023-12-18T14:37:22.303Z,101083.88
2023-12-18T14:39:49.058Z,101092.45
2023-12-18T14:42:15.939Z,101094.67
2023-12-18T14:44:42.674Z,101090.55
2023-12-18T14:47:10.303Z,101090.55
2023-12-18T14:49:37.127Z,101090.58
2023-12-18T14:52:04.416Z,101088.45
2023-12-18T14:54:32.505Z,101086.80
2023-12-18T14:56:59.603Z,101093.48
2023-12-18T14:59:26.352Z,101098.82
2023-12-18T15:01:55.945Z,101105.71
2023-12-18T15:04:29.519Z,101101.78
2023-12-18T15:06:58.925Z,101098.67
2023-12-18T15:09:26.556Z,101111.11
2023-12-18T15:11:53.409Z,101114.52
2023-12-18T15:14:20.632Z,101111.91
2023-12-18T15:16:48.671Z,101111.15
2023-12-18T15:19:16.076Z,101115.89
2023-12-18T15:21:43.030Z,101117.61
2023-12-18T15:24:10.857Z,101120.95
2023-12-18T15:26:39.301Z,101118.71
2023-12-18T15:29:06.823Z,101117.09
2023-12-18T15:31:33.772Z,101114.58
2023-12-18T15:34:03.538Z,101118.61
2023-12-18T15:36:33.196Z,101118.60
2023-12-18T15:39:00.184Z,101116.84
2023-12-18T15:41:27.706Z,101120.13
2023-12-18T15:43:54.488Z,101113.73
2023-12-18T15:46:21.291Z,101114.02
2023-12-18T15:48:55.341Z,101117.39
2023-12-18T15:51:23.250Z,101121.26
2023-12-18T15:53:50.287Z,101119.58
2023-12-18T15:56:17.058Z,101124.15
2023-12-18T15:58:44.535Z,101119.55
2023-12-18T16:01:13.212Z,101116.66
2023-12-18T16:03:41.478Z,101112.59
2023-12-18T16:06:08.314Z,101106.39
2023-12-18T16:08:35.426Z,101106.08
2023-12-18T16:11:02.859Z,101105.48
2023-12-18T16:13:29.647Z,101108.88
2023-12-18T16:15:56.559Z,101110.29
2023-12-18T16:18:23.608Z,101117.90
2023-12-18T16:20:50.607Z,101116.23
2023-12-18T16:23:20.225Z,101112.26
2023-12-18T16:25:47.110Z,101110.63
2023-12-18T16:28:13.845Z,101109.05
2023-12-18T16:30:45.178Z,101108.95
2023-12-18T16:33:20.004Z,101111.08
2023-12-18T16:35:47.018Z,101112.66
2023-12-18T16:38:13.875Z,101114.43
2023-12-18T16:40:40.650Z,101106.88
2023-12-18T16:43:07.541Z,101103.63
2023-12-18T16:45:34.481Z,101107.91
2023-12-18T16:48:01.538Z,101102.31
2023-12-18T16:50:28.360Z,101102.32
2023-12-18T16:52:55.106Z,101099.23
2023-12-18T16:55:21.857Z,101090.15
2023-12-18T16:57:51.093Z,101090.63
2023-12-18T17:00:19.665Z,101092.95
2023-12-18T17:02:46.688Z,101101.23
2023-12-18T17:05:13.582Z,101099.22
2023-12-18T17:07:40.802Z,101092.10
2023-12-18T17:10:08.087Z,101088.99
2023-12-18T17:12:34.903Z,101083.60
2023-12-18T17:15:01.795Z,101084.95
2023-12-18T17:17:30.674Z,101087.46
2023-12-18T17:19:57.749Z,101086.85
2023-12-18T17:22:24.698Z,101081.31
2023-12-18T17:24:53.727Z,101080.33
2023-12-18T17:27:20.855Z,101073.88
2023-12-18T17:29:50.137Z,101075.58
2023-12-18T17:32:28.134Z,101074.05
2023-12-18T17:35:00.746Z,101076.45
2023-12-18T17:37:27.985Z,101074.01
2023-12-18T17:39:55.197Z,101071.51
2023-12-18T17:42:22.351Z,101069.33
2023-12-18T17:44:49.089Z,101064.81
2023-12-18T17:47:15.804Z,101058.80
2023-12-18T17:49:43.726Z,101061.27
2023-12-18T17:52:11.124Z,101060.66
2023-12-18T17:54:38.470Z,101055.27
2023-12-18T17:57:05.339Z,101052.33
2023-12-18T17:59:32.129Z,101046.91
2023-12-18T18:01:58.954Z,101049.38
2023-12-18T18:04:25.820Z,101046.16
2023-12-18T18:06:53.148Z,101047.04
2023-12-18T18:09:19.965Z,101041.13
2023-12-18T18:11:46.729Z,101037.88
2023-12-18T18:14:13.563Z,101033.27
2023-12-18T18:16:40.378Z,101034.36
2023-12-18T18:19:09.130Z,101030.77
2023-12-18T18:21:36.633Z,101033.95
2023-12-18T18:24:04.061Z,101033.17
2023-12-18T18:26:30.908Z,101038.03
2023-12-18T18:28:57.804Z,101042.66
2023-12-18T18:31:25.844Z,101036.41
2023-12-18T18:33:53.303Z,101047.57
2023-12-18T18:36:22.663Z,101044.59
2023-12-18T18:38:49.576Z,101047.21
2023-12-18T18:41:16.314Z,101046.27
2023-12-18T18:43:43.135Z,101044.23
2023-12-18T18:46:14.334Z,101046.30
2023-12-18T18:48:42.298Z,101048.75
2023-12-18T18:51:09.598Z,101045.50
2023-12-18T18:53:36.778Z,101042.34
2023-12-18T18:56:07.162Z,101044.08
2023-12-18T18:58:37.289Z,101048.36
2023-12-18T19:01:04.497Z,101043.05
2023-12-18T19:03:31.690Z,101045.88
2023-12-18T19:05:58.693Z,101046.63
2023-12-18T19:08:26.701Z,101041.97
2023-12-18T19:10:54.211Z,101048.55
2023-12-18T19:13:22.661Z,101042.35
2023-12-18T19:15:51.624Z,101040.68
2023-12-18T19:18:19.887Z,101042.45
2023-12-18T19:20:49.660Z,101038.86
2023-12-18T19:23:16.593Z,101038.29
2023-12-18T19:25:45.375Z,101037.05
2023-12-18T19:28:16.225Z,101027.98
2023-12-18T19:30:46.362Z,101023.83
2023-12-18T19:33:13.503Z,101022.70
2023-12-18T19:35:47.135Z,101023.29
2023-12-18T19:38:13.981Z,101021.92
2023-12-18T19:40:41.209Z,101021.01
2023-12-18T19:43:09.679Z,101016.76
2023-12-18T19:45:37.921Z,101015.05
2023-12-18T19:48:05.346Z,101011.30
2023-12-18T19:50:32.862Z,101007.05
2023-12-18T19:52:59.767Z,101006.27
2023-12-18T19:55:26.654Z,101006.77
2023-12-18T19:57:53.501Z,101000.30
2023-12-18T20:00:23.615Z,100993.23
2023-12-18T20:02:50.311Z,100988.66
2023-12-18T20:05:17.350Z,100987.70
2023-12-18T20:07:44.208Z,100983.30
2023-12-18T20:10:11.944Z,100979.92
2023-12-18T20:12:38.750Z,100986.40
2023-12-18T20:15:06.457Z,100972.64
2023-12-18T20:17:34.417Z,100963.12
2023-12-18T20:20:01.380Z,100961.21
2023-12-18T20:22:28.165Z,100962.89
2023-12-18T20:24:55.372Z,100962.80
2023-12-18T20:27:23.355Z,100959.52
2023-12-18T20:29:50.275Z,100954.13
2023-12-18T20:32:17.182Z,100952.16
2023-12-18T20:34:44.422Z,100948.41
2023-12-18T20:37:11.584Z,100945.30
2023-12-18T20:39:38.349Z,100949.52
2023-12-18T20:42:05.719Z,100950.63
2023-12-18T20:44:32.524Z,100947.39
2023-12-18T20:46:59.246Z,100942.86
2023-12-18T20:49:27.642Z,100943.23
2023-12-18T20:51:56.482Z,100936.11
2023-12-18T20:54:23.914Z,100933.48
2023-12-18T20:56:50.898Z,100932.66
2023-12-18T20:59:17.626Z,100926.11
2023-12-18T21:01:44.922Z,100926.38
2023-12-18T21:04:11.989Z,100923.39
2023-12-18T21:06:39.593Z,100921.61
2023-12-18T21:09:06.402Z,100921.72
2023-12-18T21:11:34.550Z,100912.69
2023-12-18T21:14:01.306Z,100911.46
2023-12-18T21:16:28.012Z,100910.64
2023-12-18T21:18:54.853Z,100907.38
2023-12-18T21:21:22.049Z,100900.59
2023-12-18T21:23:48.944Z,100898.46
2023-12-18T21:26:16.470Z,100893.13
2023-12-18T21:28:44.292Z,100887.02
2023-12-18T21:31:11.836Z,100882.31
2023-12-18T21:33:39.502Z,100878.98
2023-12-18T21:36:13.972Z,100876.70
2023-12-18T21:38:40.813Z,100869.41
2023-12-18T21:41:07.697Z,100867.54
2023-12-18T21:43:34.453Z,100865.25
2023-12-18T21:46:01.210Z,100864.24
2023-12-18T21:48:28.267Z,100860.50
2023-12-18T21:50:55.220Z,100858.69
2023-12-18T21:53:23.990Z,100856.69
2023-12-18T21:55:50.879Z,100859.23
2023-12-18T21:58:17.572Z,100855.70
2023-12-18T22:00:44.467Z,100850.55
2023-12-18T22:03:11.547Z,100851.42
2023-12-18T22:05:38.363Z,100851.85
2023-12-18T22:08:06.506Z,100849.96
2023-12-18T22:10:33.148Z,100846.24
2023-12-18T22:13:00.069Z,100842.05
2023-12-18T22:15:26.942Z,100839.63
2023-12-18T22:17:53.786Z,100839.42
2023-12-18T22:20:21.448Z,100843.56
2023-12-18T22:22:49.539Z,100843.25
2023-12-18T22:25:16.341Z,100841.41
2023-12-18T22:27:43.432Z,100839.09
2023-12-18T22:30:11.709Z,100834.95
2023-12-18T22:32:39.244Z,100829.80
2023-12-18T22:35:06.998Z,100826.64
2023-12-18T22:37:34.229Z,100824.02
2023-12-18T22:40:01.278Z,100819.83
2023-12-18T22:42:28.504Z,100813.92
2023-12-18T22:44:55.322Z,100808.46
2023-12-18T22:47:24.777Z,100805.64
2023-12-18T22:49:51.637Z,100800.90
2023-12-18T22:52:18.626Z,100797.85
2023-12-18T22:54:45.590Z,100793.46
2023-12-18T22:57:12.436Z,100784.23
2023-12-18T22:59:39.147Z,100774.09
2023-12-18T23:02:05.966Z,100772.77
2023-12-18T23:04:32.867Z,100768.55
2023-12-18T23:06:59.902Z,100770.12
2023-12-18T23:09:26.739Z,100776.89
2023-12-18T23:11:54.668Z,100769.45
2023-12-18T23:14:21.445Z,100759.05
2023-12-18T23:16:48.132Z,100756.70
2023-12-18T23:19:14.868Z,100755.02
2023-12-18T23:21:42.137Z,100753.02
2023-12-18T23:24:10.888Z,100749.10
2023-12-18T23:26:38.276Z,100751.81
2023-12-18T23:29:07.142Z,100755.17
2023-12-18T23:31:35.595Z,100758.88
2023-12-18T23:34:02.663Z,100757.59
2023-12-18T23:36:29.497Z,100759.33
2023-12-18T23:38:56.237Z,100755.38
2023-12-18T23:41:22.982Z,100755.08
2023-12-18T23:43:49.693Z,100749.16
2023-12-18T23:46:16.545Z,100744.81
2023-12-18T23:48:43.517Z,100736.77
2023-12-18T23:51:10.295Z,100732.15
2023-12-18T23:53:37.271Z,100730.16
2023-12-18T23:56:06.440Z,100728.21
2023-12-18T23:58:33.161Z,100724.30
